sensor_id;sensor_type;location;lat;lon;timestamp;P1;durP1;ratioP1;P2;durP2;ratioP2
7683;SDS011;3884;48.616;12.872;2023-03-17T00:00:14;3.37;;;2.90;;
7683;SDS011;3884;48.616;12.872;2023-03-17T00:02:45;3.90;;;2.70;;
7683;SDS011;3884;48.616;12.872;2023-03-17T00:05:15;4.67;;;3.07;;
7683;SDS011;3884;48.616;12.872;2023-03-17T00:07:44;7.27;;;3.23;;
7683;SDS011;3884;48.616;12.872;2023-03-17T00:10:13;6.83;;;3.30;;
7683;SDS011;3884;48.616;12.872;2023-03-17T00:12:42;4.57;;;2.87;;
7683;SDS011;3884;48.616;12.872;2023-03-17T00:15:10;4.47;;;3.13;;
7683;SDS011;3884;48.616;12.872;2023-03-17T00:17:39;3.30;;;3.00;;
7683;SDS011;3884;48.616;12.872;2023-03-17T00:20:11;4.13;;;3.10;;
7683;SDS011;3884;48.616;12.872;2023-03-17T00:22:41;5.13;;;3.23;;
7683;SDS011;3884;48.616;12.872;2023-03-17T00:25:15;5.33;;;3.00;;
7683;SDS011;3884;48.616;12.872;2023-03-17T00:27:47;5.30;;;3.30;;
7683;SDS011;3884;48.616;12.872;2023-03-17T00:30:15;6.33;;;3.40;;
7683;SDS011;3884;48.616;12.872;2023-03-17T00:32:42;3.80;;;3.23;;
7683;SDS011;3884;48.616;12.872;2023-03-17T00:35:16;5.83;;;3.30;;
7683;SDS011;3884;48.616;12.872;2023-03-17T00:37:47;3.80;;;3.10;;
7683;SDS011;3884;48.616;12.872;2023-03-17T00:40:17;4.13;;;3.03;;
7683;SDS011;3884;48.616;12.872;2023-03-17T00:42:46;5.00;;;3.33;;
7683;SDS011;3884;48.616;12.872;2023-03-17T00:45:14;4.13;;;3.03;;
7683;SDS011;3884;48.616;12.872;2023-03-17T00:47:42;3.20;;;2.90;;
7683;SDS011;3884;48.616;12.872;2023-03-17T00:50:10;5.87;;;3.57;;
7683;SDS011;3884;48.616;12.872;2023-03-17T00:52:41;5.60;;;3.30;;
7683;SDS011;3884;48.616;12.872;2023-03-17T00:55:09;4.57;;;3.30;;
7683;SDS011;3884;48.616;12.872;2023-03-17T00:57:37;4.93;;;3.60;;
7683;SDS011;3884;48.616;12.872;2023-03-17T01:00:06;4.23;;;3.60;;
7683;SDS011;3884;48.616;12.872;2023-03-17T01:02:42;4.13;;;3.23;;
7683;SDS011;3884;48.616;12.872;2023-03-17T01:05:10;5.47;;;3.27;;
7683;SDS011;3884;48.616;12.872;2023-03-17T01:07:37;4.87;;;3.00;;
7683;SDS011;3884;48.616;12.872;2023-03-17T01:10:10;4.20;;;3.37;;
7683;SDS011;3884;48.616;12.872;2023-03-17T01:12:39;4.80;;;2.90;;
7683;SDS011;3884;48.616;12.872;2023-03-17T01:15:07;4.93;;;3.40;;
7683;SDS011;3884;48.616;12.872;2023-03-17T01:17:34;3.70;;;2.80;;
7683;SDS011;3884;48.616;12.872;2023-03-17T01:20:02;3.43;;;2.83;;
7683;SDS011;3884;48.616;12.872;2023-03-17T01:22:29;5.37;;;3.17;;
7683;SDS011;3884;48.616;12.872;2023-03-17T01:24:56;3.93;;;3.03;;
7683;SDS011;3884;48.616;12.872;2023-03-17T01:27:24;5.80;;;3.03;;
7683;SDS011;3884;48.616;12.872;2023-03-17T01:29:51;5.13;;;3.00;;
7683;SDS011;3884;48.616;12.872;2023-03-17T01:32:19;5.27;;;3.40;;
7683;SDS011;3884;48.616;12.872;2023-03-17T01:34:46;7.97;;;3.27;;
7683;SDS011;3884;48.616;12.872;2023-03-17T01:37:13;4.23;;;3.10;;
7683;SDS011;3884;48.616;12.872;2023-03-17T01:39:40;5.63;;;3.50;;
7683;SDS011;3884;48.616;12.872;2023-03-17T01:42:07;6.13;;;3.27;;
7683;SDS011;3884;48.616;12.872;2023-03-17T01:47:24;5.50;;;3.27;;
7683;SDS011;3884;48.616;12.872;2023-03-17T01:49:54;4.60;;;3.13;;
7683;SDS011;3884;48.616;12.872;2023-03-17T01:52:22;3.93;;;3.53;;
7683;SDS011;3884;48.616;12.872;2023-03-17T01:54:51;6.17;;;3.33;;
7683;SDS011;3884;48.616;12.872;2023-03-17T01:57:22;5.77;;;3.00;;
7683;SDS011;3884;48.616;12.872;2023-03-17T01:59:55;4.23;;;3.20;;
7683;SDS011;3884;48.616;12.872;2023-03-17T02:02:27;3.73;;;3.13;;
7683;SDS011;3884;48.616;12.872;2023-03-17T02:04:57;5.63;;;3.17;;
7683;SDS011;3884;48.616;12.872;2023-03-17T02:07:24;5.27;;;3.00;;
7683;SDS011;3884;48.616;12.872;2023-03-17T02:09:52;5.20;;;3.13;;
7683;SDS011;3884;48.616;12.872;2023-03-17T02:12:20;5.07;;;3.30;;
7683;SDS011;3884;48.616;12.872;2023-03-17T02:14:48;4.87;;;3.37;;
7683;SDS011;3884;48.616;12.872;2023-03-17T02:17:17;4.17;;;3.30;;
7683;SDS011;3884;48.616;12.872;2023-03-17T02:19:44;4.43;;;3.93;;
7683;SDS011;3884;48.616;12.872;2023-03-17T02:22:12;6.17;;;3.43;;
7683;SDS011;3884;48.616;12.872;2023-03-17T02:24:44;4.50;;;3.00;;
7683;SDS011;3884;48.616;12.872;2023-03-17T02:27:15;4.80;;;3.00;;
7683;SDS011;3884;48.616;12.872;2023-03-17T02:29:45;5.93;;;3.07;;
7683;SDS011;3884;48.616;12.872;2023-03-17T02:32:12;4.90;;;3.33;;
7683;SDS011;3884;48.616;12.872;2023-03-17T02:34:41;5.20;;;3.23;;
7683;SDS011;3884;48.616;12.872;2023-03-17T02:37:09;5.13;;;3.10;;
7683;SDS011;3884;48.616;12.872;2023-03-17T02:39:37;4.77;;;3.00;;
7683;SDS011;3884;48.616;12.872;2023-03-17T02:42:04;4.23;;;3.10;;
7683;SDS011;3884;48.616;12.872;2023-03-17T02:44:32;3.67;;;3.10;;
7683;SDS011;3884;48.616;12.872;2023-03-17T02:47:00;5.13;;;3.67;;
7683;SDS011;3884;48.616;12.872;2023-03-17T02:49:27;5.60;;;3.47;;
7683;SDS011;3884;48.616;12.872;2023-03-17T02:51:55;5.17;;;3.17;;
7683;SDS011;3884;48.616;12.872;2023-03-17T02:54:22;6.00;;;3.50;;
7683;SDS011;3884;48.616;12.872;2023-03-17T02:56:51;3.43;;;3.13;;
7683;SDS011;3884;48.616;12.872;2023-03-17T02:59:17;5.00;;;3.40;;
7683;SDS011;3884;48.616;12.872;2023-03-17T03:01:44;7.23;;;3.40;;
7683;SDS011;3884;48.616;12.872;2023-03-17T03:04:12;6.53;;;3.60;;
7683;SDS011;3884;48.616;12.872;2023-03-17T03:06:39;5.07;;;3.20;;
7683;SDS011;3884;48.616;12.872;2023-03-17T03:09:06;5.33;;;3.20;;
7683;SDS011;3884;48.616;12.872;2023-03-17T03:11:34;4.87;;;3.50;;
7683;SDS011;3884;48.616;12.872;2023-03-17T03:14:02;3.53;;;3.23;;
7683;SDS011;3884;48.616;12.872;2023-03-17T03:16:30;3.90;;;3.30;;
7683;SDS011;3884;48.616;12.872;2023-03-17T03:18:57;6.50;;;3.77;;
7683;SDS011;3884;48.616;12.872;2023-03-17T03:21:24;5.73;;;4.00;;
7683;SDS011;3884;48.616;12.872;2023-03-17T03:23:51;3.80;;;3.40;;
7683;SDS011;3884;48.616;12.872;2023-03-17T03:26:18;3.80;;;3.20;;
7683;SDS011;3884;48.616;12.872;2023-03-17T03:28:45;4.87;;;3.43;;
7683;SDS011;3884;48.616;12.872;2023-03-17T03:31:13;6.20;;;3.70;;
7683;SDS011;3884;48.616;12.872;2023-03-17T03:33:41;5.67;;;3.40;;
7683;SDS011;3884;48.616;12.872;2023-03-17T03:36:08;4.70;;;3.80;;
7683;SDS011;3884;48.616;12.872;2023-03-17T03:38:35;5.20;;;3.67;;
7683;SDS011;3884;48.616;12.872;2023-03-17T03:41:02;6.23;;;4.30;;
7683;SDS011;3884;48.616;12.872;2023-03-17T03:43:29;5.70;;;3.50;;
7683;SDS011;3884;48.616;12.872;2023-03-17T03:45:56;4.67;;;3.77;;
7683;SDS011;3884;48.616;12.872;2023-03-17T03:48:24;6.50;;;3.37;;
7683;SDS011;3884;48.616;12.872;2023-03-17T03:50:54;5.73;;;3.60;;
7683;SDS011;3884;48.616;12.872;2023-03-17T03:53:21;6.77;;;4.00;;
7683;SDS011;3884;48.616;12.872;2023-03-17T03:55:48;5.17;;;3.67;;
7683;SDS011;3884;48.616;12.872;2023-03-17T03:58:15;5.23;;;3.37;;
7683;SDS011;3884;48.616;12.872;2023-03-17T04:00:42;4.23;;;3.67;;
7683;SDS011;3884;48.616;12.872;2023-03-17T04:03:09;5.87;;;3.43;;
7683;SDS011;3884;48.616;12.872;2023-03-17T04:05:38;6.33;;;3.97;;
7683;SDS011;3884;48.616;12.872;2023-03-17T04:08:05;5.63;;;4.40;;
7683;SDS011;3884;48.616;12.872;2023-03-17T04:10:32;6.30;;;3.70;;
7683;SDS011;3884;48.616;12.872;2023-03-17T04:12:59;7.97;;;4.30;;
7683;SDS011;3884;48.616;12.872;2023-03-17T04:15:27;5.90;;;4.00;;
7683;SDS011;3884;48.616;12.872;2023-03-17T04:17:53;5.00;;;3.97;;
7683;SDS011;3884;48.616;12.872;2023-03-17T04:20:20;6.33;;;3.77;;
7683;SDS011;3884;48.616;12.872;2023-03-17T04:22:49;5.60;;;3.80;;
7683;SDS011;3884;48.616;12.872;2023-03-17T04:25:16;7.83;;;4.87;;
7683;SDS011;3884;48.616;12.872;2023-03-17T04:27:43;4.70;;;3.90;;
7683;SDS011;3884;48.616;12.872;2023-03-17T04:30:10;9.33;;;4.07;;
7683;SDS011;3884;48.616;12.872;2023-03-17T04:32:39;7.47;;;3.70;;
7683;SDS011;3884;48.616;12.872;2023-03-17T04:35:06;6.27;;;3.80;;
7683;SDS011;3884;48.616;12.872;2023-03-17T04:37:37;4.83;;;3.40;;
7683;SDS011;3884;48.616;12.872;2023-03-17T04:40:06;8.67;;;3.63;;
7683;SDS011;3884;48.616;12.872;2023-03-17T04:42:34;6.50;;;3.60;;
7683;SDS011;3884;48.616;12.872;2023-03-17T04:45:01;5.50;;;3.87;;
7683;SDS011;3884;48.616;12.872;2023-03-17T04:47:28;4.63;;;3.80;;
7683;SDS011;3884;48.616;12.872;2023-03-17T04:49:56;4.10;;;3.47;;
7683;SDS011;3884;48.616;12.872;2023-03-17T04:52:23;5.00;;;3.53;;
7683;SDS011;3884;48.616;12.872;2023-03-17T04:54:50;5.67;;;3.80;;
7683;SDS011;3884;48.616;12.872;2023-03-17T04:57:19;7.17;;;4.10;;
7683;SDS011;3884;48.616;12.872;2023-03-17T04:59:48;5.33;;;3.50;;
7683;SDS011;3884;48.616;12.872;2023-03-17T05:02:15;4.53;;;3.50;;
7683;SDS011;3884;48.616;12.872;2023-03-17T05:04:42;3.70;;;3.30;;
7683;SDS011;3884;48.616;12.872;2023-03-17T05:07:10;6.40;;;3.63;;
7683;SDS011;3884;48.616;12.872;2023-03-17T05:09:37;10.07;;;4.20;;
7683;SDS011;3884;48.616;12.872;2023-03-17T05:12:04;4.00;;;3.60;;
7683;SDS011;3884;48.616;12.872;2023-03-17T05:14:34;4.87;;;3.80;;
7683;SDS011;3884;48.616;12.872;2023-03-17T05:17:00;4.80;;;3.40;;
7683;SDS011;3884;48.616;12.872;2023-03-17T05:19:27;7.03;;;3.90;;
7683;SDS011;3884;48.616;12.872;2023-03-17T05:21:54;5.57;;;3.80;;
7683;SDS011;3884;48.616;12.872;2023-03-17T05:24:21;5.10;;;3.77;;
7683;SDS011;3884;48.616;12.872;2023-03-17T05:26:48;5.23;;;3.67;;
7683;SDS011;3884;48.616;12.872;2023-03-17T05:29:15;6.03;;;3.57;;
7683;SDS011;3884;48.616;12.872;2023-03-17T05:31:43;4.67;;;3.50;;
7683;SDS011;3884;48.616;12.872;2023-03-17T05:34:11;4.10;;;3.57;;
7683;SDS011;3884;48.616;12.872;2023-03-17T05:36:38;6.53;;;3.67;;
7683;SDS011;3884;48.616;12.872;2023-03-17T05:39:05;5.67;;;3.50;;
7683;SDS011;3884;48.616;12.872;2023-03-17T05:41:33;3.97;;;3.60;;
7683;SDS011;3884;48.616;12.872;2023-03-17T05:44:00;6.43;;;3.60;;
7683;SDS011;3884;48.616;12.872;2023-03-17T05:46:27;5.37;;;3.43;;
7683;SDS011;3884;48.616;12.872;2023-03-17T05:48:56;7.43;;;4.03;;
7683;SDS011;3884;48.616;12.872;2023-03-17T05:51:22;5.57;;;3.57;;
7683;SDS011;3884;48.616;12.872;2023-03-17T05:53:51;5.03;;;3.60;;
7683;SDS011;3884;48.616;12.872;2023-03-17T05:56:18;5.10;;;3.60;;
7683;SDS011;3884;48.616;12.872;2023-03-17T05:58:46;3.50;;;3.20;;
7683;SDS011;3884;48.616;12.872;2023-03-17T06:01:13;5.03;;;3.47;;
7683;SDS011;3884;48.616;12.872;2023-03-17T06:03:39;5.00;;;3.17;;
7683;SDS011;3884;48.616;12.872;2023-03-17T06:06:08;5.03;;;3.53;;
7683;SDS011;3884;48.616;12.872;2023-03-17T06:08:34;5.97;;;3.60;;
7683;SDS011;3884;48.616;12.872;2023-03-17T06:11:01;5.53;;;3.57;;
7683;SDS011;3884;48.616;12.872;2023-03-17T06:13:28;6.33;;;3.50;;
7683;SDS011;3884;48.616;12.872;2023-03-17T06:15:55;5.30;;;3.73;;
7683;SDS011;3884;48.616;12.872;2023-03-17T06:18:22;5.93;;;3.33;;
7683;SDS011;3884;48.616;12.872;2023-03-17T06:20:49;6.17;;;3.20;;
7683;SDS011;3884;48.616;12.872;2023-03-17T06:23:17;3.90;;;3.20;;
7683;SDS011;3884;48.616;12.872;2023-03-17T06:25:44;9.30;;;3.47;;
7683;SDS011;3884;48.616;12.872;2023-03-17T06:28:11;4.63;;;3.30;;
7683;SDS011;3884;48.616;12.872;2023-03-17T06:30:38;5.47;;;3.20;;
7683;SDS011;3884;48.616;12.872;2023-03-17T06:33:05;3.83;;;3.00;;
7683;SDS011;3884;48.616;12.872;2023-03-17T06:35:32;5.47;;;3.67;;
7683;SDS011;3884;48.616;12.872;2023-03-17T06:38:00;5.67;;;3.30;;
7683;SDS011;3884;48.616;12.872;2023-03-17T06:40:29;5.30;;;3.20;;
7683;SDS011;3884;48.616;12.872;2023-03-17T06:42:58;4.20;;;3.00;;
7683;SDS011;3884;48.616;12.872;2023-03-17T06:45:25;3.97;;;3.13;;
7683;SDS011;3884;48.616;12.872;2023-03-17T06:47:52;4.73;;;3.10;;
7683;SDS011;3884;48.616;12.872;2023-03-17T06:50:19;3.67;;;3.13;;
7683;SDS011;3884;48.616;12.872;2023-03-17T06:52:46;4.67;;;2.70;;
7683;SDS011;3884;48.616;12.872;2023-03-17T06:55:13;5.53;;;4.00;;
7683;SDS011;3884;48.616;12.872;2023-03-17T06:57:42;4.40;;;2.70;;
7683;SDS011;3884;48.616;12.872;2023-03-17T07:03:57;5.10;;;2.90;;
7683;SDS011;3884;48.616;12.872;2023-03-17T07:06:25;4.00;;;3.50;;
7683;SDS011;3884;48.616;12.872;2023-03-17T07:08:52;4.27;;;3.83;;
7683;SDS011;3884;48.616;12.872;2023-03-17T07:11:19;3.90;;;3.13;;
7683;SDS011;3884;48.616;12.872;2023-03-17T07:13:49;4.37;;;3.50;;
7683;SDS011;3884;48.616;12.872;2023-03-17T07:16:16;4.80;;;3.50;;
7683;SDS011;3884;48.616;12.872;2023-03-17T07:18:45;5.40;;;3.73;;
7683;SDS011;3884;48.616;12.872;2023-03-17T07:21:12;6.23;;;4.63;;
7683;SDS011;3884;48.616;12.872;2023-03-17T07:23:38;7.00;;;5.60;;
7683;SDS011;3884;48.616;12.872;2023-03-17T07:26:05;5.03;;;4.00;;
7683;SDS011;3884;48.616;12.872;2023-03-17T07:28:33;3.87;;;3.00;;
7683;SDS011;3884;48.616;12.872;2023-03-17T07:31:01;4.23;;;3.13;;
7683;SDS011;3884;48.616;12.872;2023-03-17T07:33:31;4.80;;;3.07;;
7683;SDS011;3884;48.616;12.872;2023-03-17T07:35:58;5.97;;;3.47;;
7683;SDS011;3884;48.616;12.872;2023-03-17T07:38:25;6.07;;;3.90;;
7683;SDS011;3884;48.616;12.872;2023-03-17T07:40:52;3.47;;;2.93;;
7683;SDS011;3884;48.616;12.872;2023-03-17T07:43:19;4.83;;;3.13;;
7683;SDS011;3884;48.616;12.872;2023-03-17T07:45:46;6.80;;;3.20;;
7683;SDS011;3884;48.616;12.872;2023-03-17T07:48:15;3.13;;;2.60;;
7683;SDS011;3884;48.616;12.872;2023-03-17T07:50:42;4.97;;;3.07;;
7683;SDS011;3884;48.616;12.872;2023-03-17T07:53:09;4.17;;;2.70;;
7683;SDS011;3884;48.616;12.872;2023-03-17T07:55:36;3.47;;;2.63;;
7683;SDS011;3884;48.616;12.872;2023-03-17T07:58:03;3.13;;;2.57;;
7683;SDS011;3884;48.616;12.872;2023-03-17T08:00:31;2.83;;;2.50;;
7683;SDS011;3884;48.616;12.872;2023-03-17T08:02:58;4.47;;;2.57;;
7683;SDS011;3884;48.616;12.872;2023-03-17T08:05:27;3.13;;;2.73;;
7683;SDS011;3884;48.616;12.872;2023-03-17T08:07:55;6.87;;;4.20;;
7683;SDS011;3884;48.616;12.872;2023-03-17T08:10:21;4.27;;;2.90;;
7683;SDS011;3884;48.616;12.872;2023-03-17T08:12:48;4.40;;;2.97;;
7683;SDS011;3884;48.616;12.872;2023-03-17T08:15:18;3.13;;;2.43;;
7683;SDS011;3884;48.616;12.872;2023-03-17T08:17:46;4.60;;;2.80;;
7683;SDS011;3884;48.616;12.872;2023-03-17T08:20:12;3.57;;;2.60;;
7683;SDS011;3884;48.616;12.872;2023-03-17T08:22:41;2.57;;;2.30;;
7683;SDS011;3884;48.616;12.872;2023-03-17T08:25:08;4.63;;;2.60;;
7683;SDS011;3884;48.616;12.872;2023-03-17T08:27:35;5.63;;;2.50;;
7683;SDS011;3884;48.616;12.872;2023-03-17T08:30:03;2.63;;;2.20;;
7683;SDS011;3884;48.616;12.872;2023-03-17T08:32:30;2.97;;;2.20;;
7683;SDS011;3884;48.616;12.872;2023-03-17T08:34:57;3.83;;;2.17;;
7683;SDS011;3884;48.616;12.872;2023-03-17T08:37:25;4.17;;;2.50;;
7683;SDS011;3884;48.616;12.872;2023-03-17T08:39:53;2.90;;;2.27;;
7683;SDS011;3884;48.616;12.872;2023-03-17T08:42:20;3.90;;;2.30;;
7683;SDS011;3884;48.616;12.872;2023-03-17T08:44:47;2.50;;;2.00;;
7683;SDS011;3884;48.616;12.872;2023-03-17T08:47:14;2.43;;;2.23;;
7683;SDS011;3884;48.616;12.872;2023-03-17T08:49:42;3.43;;;2.30;;
7683;SDS011;3884;48.616;12.872;2023-03-17T08:52:09;4.30;;;2.53;;
7683;SDS011;3884;48.616;12.872;2023-03-17T08:54:36;3.40;;;2.47;;
7683;SDS011;3884;48.616;12.872;2023-03-17T08:57:04;2.77;;;2.40;;
7683;SDS011;3884;48.616;12.872;2023-03-17T08:59:31;2.30;;;2.10;;
7683;SDS011;3884;48.616;12.872;2023-03-17T09:01:58;2.80;;;2.50;;
7683;SDS011;3884;48.616;12.872;2023-03-17T09:04:25;4.70;;;2.70;;
7683;SDS011;3884;48.616;12.872;2023-03-17T09:06:52;3.57;;;2.60;;
7683;SDS011;3884;48.616;12.872;2023-03-17T09:09:20;2.97;;;2.40;;
7683;SDS011;3884;48.616;12.872;2023-03-17T09:11:47;3.57;;;2.50;;
7683;SDS011;3884;48.616;12.872;2023-03-17T09:14:16;4.90;;;2.67;;
7683;SDS011;3884;48.616;12.872;2023-03-17T09:16:43;3.07;;;2.40;;
7683;SDS011;3884;48.616;12.872;2023-03-17T09:19:13;4.57;;;2.23;;
7683;SDS011;3884;48.616;12.872;2023-03-17T09:21:42;2.50;;;2.20;;
7683;SDS011;3884;48.616;12.872;2023-03-17T09:24:09;3.13;;;2.40;;
7683;SDS011;3884;48.616;12.872;2023-03-17T09:26:36;2.77;;;2.20;;
7683;SDS011;3884;48.616;12.872;2023-03-17T09:29:03;3.00;;;2.60;;
7683;SDS011;3884;48.616;12.872;2023-03-17T09:31:32;4.00;;;2.37;;
7683;SDS011;3884;48.616;12.872;2023-03-17T09:34:01;3.67;;;2.30;;
7683;SDS011;3884;48.616;12.872;2023-03-17T09:36:29;3.77;;;2.03;;
7683;SDS011;3884;48.616;12.872;2023-03-17T09:38:56;3.93;;;2.30;;
7683;SDS011;3884;48.616;12.872;2023-03-17T09:41:30;3.00;;;2.37;;
7683;SDS011;3884;48.616;12.872;2023-03-17T09:44:20;2.23;;;2.03;;
7683;SDS011;3884;48.616;12.872;2023-03-17T09:46:59;3.27;;;2.10;;
7683;SDS011;3884;48.616;12.872;2023-03-17T09:49:36;3.93;;;2.37;;
7683;SDS011;3884;48.616;12.872;2023-03-17T09:52:09;3.60;;;2.20;;
7683;SDS011;3884;48.616;12.872;2023-03-17T09:54:39;2.30;;;2.10;;
7683;SDS011;3884;48.616;12.872;2023-03-17T09:57:09;5.10;;;2.00;;
7683;SDS011;3884;48.616;12.872;2023-03-17T09:59:40;2.90;;;2.40;;
7683;SDS011;3884;48.616;12.872;2023-03-17T10:02:14;2.87;;;2.33;;
7683;SDS011;3884;48.616;12.872;2023-03-17T10:04:46;2.40;;;2.07;;
7683;SDS011;3884;48.616;12.872;2023-03-17T10:07:14;2.73;;;2.23;;
7683;SDS011;3884;48.616;12.872;2023-03-17T10:09:48;3.33;;;2.53;;
7683;SDS011;3884;48.616;12.872;2023-03-17T10:12:25;3.00;;;2.30;;
7683;SDS011;3884;48.616;12.872;2023-03-17T10:14:57;3.67;;;2.43;;
7683;SDS011;3884;48.616;12.872;2023-03-17T10:17:30;3.00;;;2.40;;
7683;SDS011;3884;48.616;12.872;2023-03-17T10:20:01;3.07;;;2.63;;
7683;SDS011;3884;48.616;12.872;2023-03-17T10:22:33;4.70;;;2.20;;
7683;SDS011;3884;48.616;12.872;2023-03-17T10:25:11;3.07;;;2.30;;
7683;SDS011;3884;48.616;12.872;2023-03-17T10:27:39;3.50;;;2.07;;
7683;SDS011;3884;48.616;12.872;2023-03-17T10:30:13;2.73;;;2.00;;
7683;SDS011;3884;48.616;12.872;2023-03-17T10:32:43;2.27;;;2.07;;
7683;SDS011;3884;48.616;12.872;2023-03-17T10:35:10;2.40;;;1.90;;
7683;SDS011;3884;48.616;12.872;2023-03-17T10:37:39;1.90;;;1.70;;
7683;SDS011;3884;48.616;12.872;2023-03-17T10:40:07;3.03;;;2.10;;
7683;SDS011;3884;48.616;12.872;2023-03-17T10:42:46;2.77;;;1.97;;
7683;SDS011;3884;48.616;12.872;2023-03-17T10:45:13;2.67;;;1.97;;
7683;SDS011;3884;48.616;12.872;2023-03-17T10:47:50;2.73;;;2.03;;
7683;SDS011;3884;48.616;12.872;2023-03-17T10:50:21;2.97;;;2.00;;
7683;SDS011;3884;48.616;12.872;2023-03-17T10:52:56;2.17;;;1.90;;
7683;SDS011;3884;48.616;12.872;2023-03-17T10:55:26;3.10;;;2.13;;
7683;SDS011;3884;48.616;12.872;2023-03-17T10:57:58;3.80;;;2.57;;
7683;SDS011;3884;48.616;12.872;2023-03-17T11:00:29;2.40;;;2.20;;
7683;SDS011;3884;48.616;12.872;2023-03-17T11:03:02;2.87;;;2.17;;
7683;SDS011;3884;48.616;12.872;2023-03-17T11:05:37;3.33;;;1.93;;
7683;SDS011;3884;48.616;12.872;2023-03-17T11:08:08;2.57;;;1.80;;
7683;SDS011;3884;48.616;12.872;2023-03-17T11:10:42;2.10;;;1.77;;
7683;SDS011;3884;48.616;12.872;2023-03-17T11:13:10;1.70;;;1.60;;
7683;SDS011;3884;48.616;12.872;2023-03-17T11:15:43;2.33;;;1.60;;
7683;SDS011;3884;48.616;12.872;2023-03-17T11:18:15;5.57;;;1.67;;
7683;SDS011;3884;48.616;12.872;2023-03-17T11:20:47;3.00;;;1.90;;
7683;SDS011;3884;48.616;12.872;2023-03-17T11:23:24;2.60;;;1.90;;
7683;SDS011;3884;48.616;12.872;2023-03-17T11:26:12;2.13;;;1.80;;
7683;SDS011;3884;48.616;12.872;2023-03-17T11:29:00;2.20;;;2.00;;
7683;SDS011;3884;48.616;12.872;2023-03-17T11:31:40;2.13;;;1.70;;
7683;SDS011;3884;48.616;12.872;2023-03-17T11:34:17;2.77;;;1.70;;
7683;SDS011;3884;48.616;12.872;2023-03-17T11:36:53;2.20;;;2.00;;
7683;SDS011;3884;48.616;12.872;2023-03-17T11:39:30;2.13;;;1.80;;
7683;SDS011;3884;48.616;12.872;2023-03-17T11:42:07;2.23;;;1.50;;
7683;SDS011;3884;48.616;12.872;2023-03-17T11:44:43;2.73;;;2.00;;
7683;SDS011;3884;48.616;12.872;2023-03-17T11:47:37;4.00;;;2.30;;
7683;SDS011;3884;48.616;12.872;2023-03-17T11:50:17;1.80;;;1.60;;
7683;SDS011;3884;48.616;12.872;2023-03-17T11:52:58;2.30;;;1.80;;
7683;SDS011;3884;48.616;12.872;2023-03-17T11:55:38;3.17;;;1.70;;
7683;SDS011;3884;48.616;12.872;2023-03-17T11:58:11;1.73;;;1.63;;
7683;SDS011;3884;48.616;12.872;2023-03-17T12:00:48;3.47;;;1.90;;
7683;SDS011;3884;48.616;12.872;2023-03-17T12:03:18;2.50;;;1.77;;
7683;SDS011;3884;48.616;12.872;2023-03-17T12:05:56;2.70;;;1.50;;
7683;SDS011;3884;48.616;12.872;2023-03-17T12:08:32;6.90;;;1.60;;
7683;SDS011;3884;48.616;12.872;2023-03-17T12:11:04;2.60;;;1.93;;
7683;SDS011;3884;48.616;12.872;2023-03-17T12:13:35;2.07;;;1.60;;
7683;SDS011;3884;48.616;12.872;2023-03-17T12:16:08;1.57;;;1.40;;
7683;SDS011;3884;48.616;12.872;2023-03-17T12:18:39;2.60;;;1.63;;
7683;SDS011;3884;48.616;12.872;2023-03-17T12:21:14;2.43;;;1.70;;
7683;SDS011;3884;48.616;12.872;2023-03-17T12:23:48;1.90;;;1.70;;
7683;SDS011;3884;48.616;12.872;2023-03-17T12:26:17;2.10;;;1.90;;
7683;SDS011;3884;48.616;12.872;2023-03-17T12:28:46;3.30;;;1.77;;
7683;SDS011;3884;48.616;12.872;2023-03-17T12:31:18;1.93;;;1.60;;
7683;SDS011;3884;48.616;12.872;2023-03-17T12:33:48;3.30;;;1.90;;
7683;SDS011;3884;48.616;12.872;2023-03-17T12:36:20;3.10;;;1.93;;
7683;SDS011;3884;48.616;12.872;2023-03-17T12:38:49;3.30;;;1.90;;
7683;SDS011;3884;48.616;12.872;2023-03-17T12:41:26;4.90;;;2.10;;
7683;SDS011;3884;48.616;12.872;2023-03-17T12:44:24;2.00;;;1.80;;
7683;SDS011;3884;48.616;12.872;2023-03-17T12:47:06;3.30;;;1.90;;
7683;SDS011;3884;48.616;12.872;2023-03-17T12:49:53;2.30;;;1.73;;
7683;SDS011;3884;48.616;12.872;2023-03-17T12:52:47;2.37;;;1.90;;
7683;SDS011;3884;48.616;12.872;2023-03-17T12:55:34;3.27;;;1.90;;
7683;SDS011;3884;48.616;12.872;2023-03-17T12:58:02;2.03;;;1.70;;
7683;SDS011;3884;48.616;12.872;2023-03-17T13:00:32;3.00;;;1.80;;
7683;SDS011;3884;48.616;12.872;2023-03-17T13:03:16;2.37;;;1.90;;
7683;SDS011;3884;48.616;12.872;2023-03-17T13:05:49;2.00;;;1.53;;
7683;SDS011;3884;48.616;12.872;2023-03-17T13:08:22;2.93;;;1.60;;
7683;SDS011;3884;48.616;12.872;2023-03-17T13:10:57;3.27;;;1.90;;
7683;SDS011;3884;48.616;12.872;2023-03-17T13:13:43;2.03;;;1.70;;
7683;SDS011;3884;48.616;12.872;2023-03-17T13:16:25;2.10;;;1.60;;
7683;SDS011;3884;48.616;12.872;2023-03-17T13:19:10;2.90;;;2.00;;
7683;SDS011;3884;48.616;12.872;2023-03-17T13:21:58;3.17;;;1.93;;
7683;SDS011;3884;48.616;12.872;2023-03-17T13:24:51;3.47;;;1.87;;
7683;SDS011;3884;48.616;12.872;2023-03-17T13:33:19;2.63;;;1.80;;
7683;SDS011;3884;48.616;12.872;2023-03-17T13:36:06;2.27;;;1.77;;
7683;SDS011;3884;48.616;12.872;2023-03-17T13:38:47;3.47;;;2.20;;
7683;SDS011;3884;48.616;12.872;2023-03-17T13:41:39;2.67;;;2.03;;
7683;SDS011;3884;48.616;12.872;2023-03-17T13:44:15;3.00;;;2.00;;
7683;SDS011;3884;48.616;12.872;2023-03-17T13:46:53;3.10;;;1.70;;
7683;SDS011;3884;48.616;12.872;2023-03-17T13:49:22;4.43;;;2.20;;
7683;SDS011;3884;48.616;12.872;2023-03-17T13:51:54;2.27;;;1.87;;
7683;SDS011;3884;48.616;12.872;2023-03-17T13:54:28;3.10;;;1.80;;
7683;SDS011;3884;48.616;12.872;2023-03-17T13:56:58;2.40;;;2.03;;
7683;SDS011;3884;48.616;12.872;2023-03-17T13:59:54;3.30;;;1.90;;
7683;SDS011;3884;48.616;12.872;2023-03-17T14:02:26;2.10;;;1.90;;
7683;SDS011;3884;48.616;12.872;2023-03-17T14:04:57;1.90;;;1.57;;
7683;SDS011;3884;48.616;12.872;2023-03-17T14:07:26;3.97;;;1.87;;
7683;SDS011;3884;48.616;12.872;2023-03-17T14:09:57;2.33;;;2.07;;
7683;SDS011;3884;48.616;12.872;2023-03-17T14:12:30;1.80;;;1.70;;
7683;SDS011;3884;48.616;12.872;2023-03-17T14:15:04;2.77;;;1.80;;
7683;SDS011;3884;48.616;12.872;2023-03-17T14:17:39;2.93;;;2.30;;
7683;SDS011;3884;48.616;12.872;2023-03-17T14:20:19;2.77;;;1.83;;
7683;SDS011;3884;48.616;12.872;2023-03-17T14:22:51;3.00;;;1.80;;
7683;SDS011;3884;48.616;12.872;2023-03-17T14:25:20;5.17;;;2.07;;
7683;SDS011;3884;48.616;12.872;2023-03-17T14:27:50;2.47;;;1.80;;
7683;SDS011;3884;48.616;12.872;2023-03-17T14:30:19;2.77;;;1.70;;
7683;SDS011;3884;48.616;12.872;2023-03-17T14:32:49;2.70;;;1.87;;
7683;SDS011;3884;48.616;12.872;2023-03-17T14:35:27;2.63;;;2.00;;
7683;SDS011;3884;48.616;12.872;2023-03-17T14:37:55;2.70;;;2.03;;
7683;SDS011;3884;48.616;12.872;2023-03-17T14:40:23;2.77;;;2.10;;
7683;SDS011;3884;48.616;12.872;2023-03-17T14:42:52;4.27;;;2.10;;
7683;SDS011;3884;48.616;12.872;2023-03-17T14:45:21;2.97;;;1.93;;
7683;SDS011;3884;48.616;12.872;2023-03-17T14:47:53;1.77;;;1.67;;
7683;SDS011;3884;48.616;12.872;2023-03-17T14:50:22;3.23;;;1.93;;
7683;SDS011;3884;48.616;12.872;2023-03-17T14:52:51;2.70;;;2.00;;
7683;SDS011;3884;48.616;12.872;2023-03-17T14:55:19;2.13;;;1.70;;
7683;SDS011;3884;48.616;12.872;2023-03-17T14:57:47;3.13;;;2.40;;
7683;SDS011;3884;48.616;12.872;2023-03-17T15:00:29;2.73;;;1.90;;
7683;SDS011;3884;48.616;12.872;2023-03-17T15:02:59;2.03;;;1.83;;
7683;SDS011;3884;48.616;12.872;2023-03-17T15:05:35;2.10;;;1.90;;
7683;SDS011;3884;48.616;12.872;2023-03-17T15:14:03;2.37;;;1.70;;
7683;SDS011;3884;48.616;12.872;2023-03-17T15:16:33;3.57;;;2.00;;
7683;SDS011;3884;48.616;12.872;2023-03-17T15:19:02;3.40;;;1.70;;
7683;SDS011;3884;48.616;12.872;2023-03-17T15:21:32;2.67;;;1.87;;
7683;SDS011;3884;48.616;12.872;2023-03-17T15:24:04;2.10;;;1.73;;
7683;SDS011;3884;48.616;12.872;2023-03-17T15:26:44;3.07;;;2.20;;
7683;SDS011;3884;48.616;12.872;2023-03-17T15:29:11;2.50;;;1.70;;
7683;SDS011;3884;48.616;12.872;2023-03-17T15:31:39;2.90;;;1.70;;
7683;SDS011;3884;48.616;12.872;2023-03-17T15:34:08;2.20;;;2.00;;
7683;SDS011;3884;48.616;12.872;2023-03-17T15:36:36;3.57;;;2.10;;